AFV211 FACT-FMMI
Flight info
| Callsign | AFV211 |
|---|---|
| Flight time | N/A |
| Altitude | 35000 |
| Route | TETAN UZ2 NIBEX/N0464F370 DCT EXOBI UT122 VMA/N0452F270 UB536 SOPVI DCT MENIR MENIR1G |
| Aircraft | B77L/M-SDE2E3FGHIRWXY/LB1 |
Departure
| Time | N/A |
|---|---|
| Airport | Cape Town International Airport (FACT) |
Arrival
| Time | 2026-04-21 13:00 |
|---|---|
| Airport | Ivato International Airport (FMMI) |
| Time | Latitude | Longitude | Altitude | Speed | Heading |
|---|---|---|---|---|---|
| 2026-04-21 11:54 | -22.52014 | 39.95218 | 35023 ft | 538 kts | 53° |
| 2026-04-21 11:55 | -22.48515 | 40.02339 | 35024 ft | 538 kts | 53° |
| 2026-04-21 11:55 | -22.44992 | 40.09494 | 35024 ft | 539 kts | 53° |
| 2026-04-21 11:56 | -22.41468 | 40.16640 | 35023 ft | 538 kts | 53° |
| 2026-04-21 11:56 | -22.37948 | 40.23769 | 35023 ft | 537 kts | 53° |
| 2026-04-21 11:57 | -22.34430 | 40.30889 | 35024 ft | 537 kts | 53° |
| 2026-04-21 11:57 | -22.30940 | 40.38030 | 35024 ft | 537 kts | 53° |
| 2026-04-21 11:58 | -22.27446 | 40.45101 | 35023 ft | 537 kts | 53° |
| 2026-04-21 11:58 | -22.23912 | 40.52218 | 35023 ft | 537 kts | 53° |
| 2026-04-21 11:59 | -22.20383 | 40.59321 | 35024 ft | 537 kts | 53° |
| 2026-04-21 11:59 | -22.16847 | 40.66427 | 35024 ft | 537 kts | 52° |
| 2026-04-21 12:00 | -22.13327 | 40.73477 | 35023 ft | 537 kts | 52° |
| 2026-04-21 12:00 | -22.09780 | 40.80568 | 35023 ft | 537 kts | 52° |
| 2026-04-21 12:01 | -22.06236 | 40.87641 | 35024 ft | 537 kts | 52° |
| 2026-04-21 12:01 | -22.02681 | 40.94728 | 35023 ft | 537 kts | 52° |
| 2026-04-21 12:02 | -21.97388 | 41.05364 | 35023 ft | 537 kts | 52° |
| 2026-04-21 12:03 | -21.93867 | 41.12399 | 35023 ft | 537 kts | 52° |
| 2026-04-21 12:03 | -21.90312 | 41.19483 | 35024 ft | 537 kts | 52° |
| 2026-04-21 12:04 | -21.86754 | 41.26558 | 35023 ft | 537 kts | 52° |
| 2026-04-21 12:04 | -21.83219 | 41.33579 | 35023 ft | 537 kts | 52° |
| 2026-04-21 12:05 | -21.79659 | 41.40639 | 35024 ft | 537 kts | 52° |
| 2026-04-21 12:05 | -21.76095 | 41.47697 | 35024 ft | 537 kts | 52° |
| 2026-04-21 12:06 | -21.72526 | 41.54757 | 35023 ft | 537 kts | 52° |
| 2026-04-21 12:06 | -21.68951 | 41.61818 | 35023 ft | 537 kts | 52° |
| 2026-04-21 12:07 | -21.65404 | 41.68815 | 35024 ft | 537 kts | 52° |
| 2026-04-21 12:07 | -21.61827 | 41.75860 | 35023 ft | 537 kts | 52° |
| 2026-04-21 12:08 | -21.58251 | 41.82896 | 35023 ft | 537 kts | 52° |
| 2026-04-21 12:08 | -21.54688 | 41.89896 | 35023 ft | 537 kts | 52° |
| 2026-04-21 12:09 | -21.51106 | 41.96924 | 35024 ft | 537 kts | 52° |
| 2026-04-21 12:09 | -21.47527 | 42.03939 | 35023 ft | 537 kts | 52° |
| 2026-04-21 12:10 | -21.43933 | 42.10972 | 35023 ft | 537 kts | 52° |
| 2026-04-21 12:10 | -21.40361 | 42.17953 | 35024 ft | 537 kts | 52° |
| 2026-04-21 12:11 | -21.36768 | 42.24967 | 35024 ft | 537 kts | 52° |
| 2026-04-21 12:11 | -21.33168 | 42.31984 | 35023 ft | 536 kts | 52° |
| 2026-04-21 12:12 | -21.29567 | 42.38995 | 35023 ft | 536 kts | 52° |
| 2026-04-21 12:12 | -21.25972 | 42.45985 | 35024 ft | 536 kts | 52° |
| 2026-04-21 12:13 | -21.22385 | 42.52949 | 35023 ft | 536 kts | 52° |
| 2026-04-21 12:13 | -21.18785 | 42.59932 | 35023 ft | 536 kts | 52° |
| 2026-04-21 12:14 | -21.15166 | 42.66941 | 35024 ft | 536 kts | 52° |
| 2026-04-21 12:14 | -21.11553 | 42.73930 | 35024 ft | 536 kts | 52° |
| 2026-04-21 12:15 | -21.07960 | 42.80872 | 35023 ft | 536 kts | 52° |
| 2026-04-21 12:15 | -21.04339 | 42.87858 | 35023 ft | 536 kts | 52° |
| 2026-04-21 12:16 | -21.00720 | 42.94831 | 35024 ft | 536 kts | 52° |
| 2026-04-21 12:16 | -20.97102 | 43.01795 | 35023 ft | 536 kts | 52° |
| 2026-04-21 12:17 | -20.93472 | 43.08773 | 35023 ft | 536 kts | 52° |
| 2026-04-21 12:17 | -20.89842 | 43.15740 | 35024 ft | 537 kts | 52° |
| 2026-04-21 12:18 | -20.86203 | 43.22718 | 35024 ft | 538 kts | 52° |
| 2026-04-21 12:18 | -20.82575 | 43.29666 | 35023 ft | 538 kts | 52° |
| 2026-04-21 12:19 | -20.78933 | 43.36632 | 35023 ft | 538 kts | 52° |
| 2026-04-21 12:19 | -20.75282 | 43.43604 | 35024 ft | 538 kts | 52° |
| 2026-04-21 12:20 | -20.71619 | 43.50594 | 35023 ft | 538 kts | 52° |
| 2026-04-21 12:20 | -20.67972 | 43.57542 | 35023 ft | 537 kts | 52° |
| 2026-04-21 12:21 | -20.64317 | 43.64498 | 35024 ft | 537 kts | 51° |
| 2026-04-21 12:21 | -20.60681 | 43.71408 | 35023 ft | 537 kts | 51° |
| 2026-04-21 12:22 | -20.57024 | 43.78350 | 35023 ft | 536 kts | 51° |
| 2026-04-21 12:22 | -20.53359 | 43.85300 | 35024 ft | 536 kts | 51° |
| 2026-04-21 12:23 | -20.49717 | 43.92196 | 35023 ft | 536 kts | 51° |
| 2026-04-21 12:23 | -20.46057 | 43.99119 | 35023 ft | 536 kts | 51° |
| 2026-04-21 12:24 | -20.42408 | 44.06043 | 35023 ft | 536 kts | 51° |
| 2026-04-21 12:24 | -20.38747 | 44.12951 | 35024 ft | 536 kts | 51° |
| 2026-04-21 12:25 | -20.35097 | 44.19816 | 35023 ft | 535 kts | 51° |
| 2026-04-21 12:25 | -20.31400 | 44.26763 | 35023 ft | 535 kts | 51° |
| 2026-04-21 12:26 | -20.27781 | 44.33632 | 35023 ft | 538 kts | 53° |
| 2026-04-21 12:26 | -20.24485 | 44.40845 | 35024 ft | 543 kts | 57° |
| 2026-04-21 12:27 | -20.21304 | 44.48141 | 35024 ft | 541 kts | 56° |
| 2026-04-21 12:27 | -20.18079 | 44.55319 | 35023 ft | 541 kts | 55° |
| 2026-04-21 12:28 | -20.14796 | 44.62564 | 35023 ft | 541 kts | 55° |
| 2026-04-21 12:28 | -20.11560 | 44.69738 | 35024 ft | 541 kts | 56° |
| 2026-04-21 12:29 | -20.08290 | 44.76965 | 35023 ft | 541 kts | 55° |
| 2026-04-21 12:29 | -20.05021 | 44.84164 | 35023 ft | 541 kts | 56° |
| 2026-04-21 12:30 | -20.01775 | 44.91334 | 35024 ft | 541 kts | 55° |
| 2026-04-21 12:30 | -19.98488 | 44.98539 | 35023 ft | 541 kts | 55° |
| 2026-04-21 12:31 | -19.95203 | 45.05723 | 35023 ft | 542 kts | 55° |
| 2026-04-21 12:31 | -19.91910 | 45.12922 | 35024 ft | 542 kts | 55° |
| 2026-04-21 12:32 | -19.88607 | 45.20132 | 35023 ft | 542 kts | 55° |
| 2026-04-21 12:32 | -19.85324 | 45.27279 | 35023 ft | 542 kts | 55° |
| 2026-04-21 12:33 | -19.82013 | 45.34477 | 35024 ft | 542 kts | 55° |
| 2026-04-21 12:33 | -19.78708 | 45.41654 | 35024 ft | 542 kts | 55° |
| 2026-04-21 12:34 | -19.75397 | 45.48845 | 35023 ft | 543 kts | 55° |
| 2026-04-21 12:34 | -19.72097 | 45.56063 | 35023 ft | 543 kts | 55° |
| 2026-04-21 12:35 | -19.68811 | 45.63207 | 35024 ft | 542 kts | 55° |
| 2026-04-21 12:35 | -19.65523 | 45.70335 | 34938 ft | 527 kts | 55° |
| 2026-04-21 12:35 | -19.63917 | 45.73811 | 34547 ft | 521 kts | 54° |
| 2026-04-21 12:36 | -19.62334 | 45.77236 | 34006 ft | 518 kts | 55° |
| 2026-04-21 12:36 | -19.60743 | 45.80675 | 33490 ft | 516 kts | 55° |
| 2026-04-21 12:36 | -19.59171 | 45.84074 | 33011 ft | 513 kts | 55° |
| 2026-04-21 12:36 | -19.57639 | 45.87382 | 32581 ft | 509 kts | 55° |
| 2026-04-21 12:37 | -19.56051 | 45.90808 | 32148 ft | 505 kts | 55° |
| 2026-04-21 12:37 | -19.54510 | 45.94132 | 31726 ft | 501 kts | 55° |
| 2026-04-21 12:37 | -19.52980 | 45.97427 | 31321 ft | 496 kts | 63° |
| 2026-04-21 12:37 | -19.51474 | 46.00674 | 31025 ft | 486 kts | 64° |
| 2026-04-21 12:38 | -19.50016 | 46.03815 | 30949 ft | 472 kts | 64° |
| 2026-04-21 12:38 | -19.47196 | 46.09881 | 30796 ft | 448 kts | 64° |
| 2026-04-21 12:38 | -19.45831 | 46.12817 | 30422 ft | 444 kts | 64° |
| 2026-04-21 12:39 | -19.44469 | 46.15744 | 29922 ft | 444 kts | 64° |
| 2026-04-21 12:39 | -19.43102 | 46.18678 | 29511 ft | 442 kts | 64° |
| 2026-04-21 12:39 | -19.41745 | 46.21592 | 29136 ft | 438 kts | 64° |
| 2026-04-21 12:39 | -19.40402 | 46.24472 | 28613 ft | 439 kts | 67° |
| 2026-04-21 12:40 | -19.39044 | 46.27389 | 27965 ft | 442 kts | 67° |
| 2026-04-21 12:40 | -19.37697 | 46.30300 | 27653 ft | 437 kts | 67° |
| 2026-04-21 12:40 | -19.36381 | 46.33128 | 27378 ft | 431 kts | 67° |
| 2026-04-21 12:40 | -19.35056 | 46.35964 | 26988 ft | 429 kts | 67° |
| 2026-04-21 12:41 | -19.33733 | 46.38791 | 26578 ft | 426 kts | 67° |
| 2026-04-21 12:41 | -19.32426 | 46.41581 | 26207 ft | 423 kts | 67° |
| 2026-04-21 12:41 | -19.31124 | 46.44359 | 25792 ft | 421 kts | 66° |
| 2026-04-21 12:41 | -19.29824 | 46.47133 | 25415 ft | 419 kts | 66° |
| 2026-04-21 12:42 | -19.28529 | 46.49894 | 25034 ft | 416 kts | 66° |
| 2026-04-21 12:42 | -19.27263 | 46.52593 | 24654 ft | 413 kts | 66° |
| 2026-04-21 12:42 | -19.26054 | 46.55332 | 24272 ft | 409 kts | 70° |
| 2026-04-21 12:42 | -19.25167 | 46.58174 | 23874 ft | 404 kts | 77° |
| 2026-04-21 12:43 | -19.24537 | 46.61034 | 23482 ft | 401 kts | 81° |
| 2026-04-21 12:43 | -19.24016 | 46.63940 | 23094 ft | 398 kts | 82° |
| 2026-04-21 12:43 | -19.23576 | 46.66823 | 22696 ft | 396 kts | 83° |
| 2026-04-21 12:43 | -19.23166 | 46.69685 | 22318 ft | 393 kts | 83° |
| 2026-04-21 12:44 | -19.22751 | 46.72551 | 21938 ft | 391 kts | 83° |
| 2026-04-21 12:44 | -19.22340 | 46.75347 | 21566 ft | 389 kts | 83° |
| 2026-04-21 12:44 | -19.21922 | 46.78164 | 21191 ft | 387 kts | 83° |
| 2026-04-21 12:44 | -19.21505 | 46.80968 | 20812 ft | 385 kts | 83° |
| 2026-04-21 12:45 | -19.21129 | 46.83484 | 20475 ft | 383 kts | 83° |
| 2026-04-21 12:45 | -19.20711 | 46.86275 | 20100 ft | 381 kts | 83° |
| 2026-04-21 12:45 | -19.20298 | 46.89032 | 19732 ft | 378 kts | 83° |
| 2026-04-21 12:45 | -19.19895 | 46.91775 | 19323 ft | 376 kts | 83° |
| 2026-04-21 12:46 | -19.19510 | 46.94467 | 18869 ft | 374 kts | 83° |
| 2026-04-21 12:46 | -19.19107 | 46.97214 | 18430 ft | 372 kts | 83° |
| 2026-04-21 12:46 | -19.18705 | 46.99909 | 18007 ft | 370 kts | 83° |
| 2026-04-21 12:46 | -19.18304 | 47.02576 | 17585 ft | 367 kts | 83° |
| 2026-04-21 12:47 | -19.17912 | 47.05168 | 17341 ft | 351 kts | 83° |
| 2026-04-21 12:47 | -19.17538 | 47.07644 | 17122 ft | 332 kts | 83° |
| 2026-04-21 12:47 | -19.17181 | 47.10002 | 16770 ft | 320 kts | 83° |
| 2026-04-21 12:47 | -19.16835 | 47.12281 | 16415 ft | 308 kts | 83° |
| 2026-04-21 12:48 | -19.16496 | 47.14518 | 15987 ft | 300 kts | 83° |
| 2026-04-21 12:48 | -19.16173 | 47.16646 | 15526 ft | 294 kts | 83° |
| 2026-04-21 12:48 | -19.15855 | 47.18744 | 15014 ft | 288 kts | 83° |
| 2026-04-21 12:48 | -19.15362 | 47.20793 | 14482 ft | 286 kts | 68° |
| 2026-04-21 12:49 | -19.14171 | 47.22439 | 13944 ft | 282 kts | 39° |
| 2026-04-21 12:49 | -19.12452 | 47.23371 | 13455 ft | 278 kts | 15° |
| 2026-04-21 12:49 | -19.10562 | 47.23656 | 12981 ft | 273 kts | 1° |
| 2026-04-21 12:49 | -19.08664 | 47.23633 | 12418 ft | 271 kts | 355° |
| 2026-04-21 12:50 | -19.06806 | 47.23459 | 11851 ft | 270 kts | 352° |
| 2026-04-21 12:50 | -19.04918 | 47.23219 | 11271 ft | 271 kts | 351° |
| 2026-04-21 12:50 | -19.03048 | 47.22984 | 10697 ft | 271 kts | 352° |
| 2026-04-21 12:50 | -19.01190 | 47.22768 | 10129 ft | 272 kts | 352° |
| 2026-04-21 12:51 | -18.99308 | 47.22562 | 9554 ft | 272 kts | 353° |
| 2026-04-21 12:51 | -18.97429 | 47.22363 | 8981 ft | 272 kts | 353° |
| 2026-04-21 12:51 | -18.95548 | 47.22168 | 8408 ft | 272 kts | 355° |
| 2026-04-21 12:51 | -18.93666 | 47.21976 | 7834 ft | 272 kts | 355° |
| 2026-04-21 12:52 | -18.91785 | 47.21783 | 7417 ft | 265 kts | 356° |
| 2026-04-21 12:52 | -18.90023 | 47.21603 | 7313 ft | 246 kts | 356° |
| 2026-04-21 12:52 | -18.88378 | 47.21436 | 7221 ft | 226 kts | 356° |
| 2026-04-21 12:52 | -18.86878 | 47.21283 | 7149 ft | 211 kts | 356° |
| 2026-04-21 12:53 | -18.85471 | 47.21139 | 7224 ft | 198 kts | 357° |
| 2026-04-21 12:53 | -18.84104 | 47.21055 | 7201 ft | 195 kts | 1° |
| 2026-04-21 12:53 | -18.82728 | 47.21168 | 7192 ft | 208 kts | 8° |
| 2026-04-21 12:53 | -18.81244 | 47.21416 | 7181 ft | 218 kts | 12° |
| 2026-04-21 12:54 | -18.79758 | 47.21693 | 7172 ft | 219 kts | 8° |
| 2026-04-21 12:54 | -18.78286 | 47.21983 | 7153 ft | 213 kts | 16° |
| 2026-04-21 12:54 | -18.77108 | 47.22818 | 7024 ft | 199 kts | 49° |
| 2026-04-21 12:54 | -18.76656 | 47.24085 | 7196 ft | 180 kts | 77° |
| 2026-04-21 12:55 | -18.76606 | 47.25497 | 7325 ft | 203 kts | 92° |
| 2026-04-21 12:55 | -18.76641 | 47.26527 | 7239 ft | 209 kts | 95° |
| 2026-04-21 12:55 | -18.76819 | 47.28511 | 7175 ft | 197 kts | 99° |
| 2026-04-21 12:55 | -18.77009 | 47.29885 | 7135 ft | 182 kts | 102° |
| 2026-04-21 12:56 | -18.77199 | 47.31163 | 7111 ft | 178 kts | 102° |
| 2026-04-21 12:56 | -18.77402 | 47.32523 | 6813 ft | 193 kts | 102° |
| 2026-04-21 12:56 | -18.77608 | 47.33908 | 6547 ft | 188 kts | 102° |
| 2026-04-21 12:56 | -18.77808 | 47.35247 | 6291 ft | 181 kts | 101° |
| 2026-04-21 12:57 | -18.77999 | 47.36527 | 6064 ft | 172 kts | 102° |
| 2026-04-21 12:57 | -18.78179 | 47.37733 | 5835 ft | 165 kts | 98° |
| 2026-04-21 12:57 | -18.78357 | 47.38929 | 5614 ft | 167 kts | 100° |
| 2026-04-21 12:57 | -18.78541 | 47.40156 | 5407 ft | 177 kts | 102° |
| 2026-04-21 12:58 | -18.78745 | 47.41526 | 5158 ft | 189 kts | 102° |
| 2026-04-21 12:58 | -18.78943 | 47.42857 | 4899 ft | 178 kts | 101° |
| 2026-04-21 12:58 | -18.79128 | 47.44095 | 4765 ft | 164 kts | 101° |
| 2026-04-21 12:58 | -18.79243 | 47.44865 | 4679 ft | 156 kts | 100° |
| 2026-04-21 12:59 | -18.79448 | 47.46232 | 4271 ft | 136 kts | 102° |
| 2026-04-21 12:59 | -18.79562 | 47.46822 | 4212 ft | 114 kts | 98° |
| 2026-04-21 12:59 | -18.79660 | 47.47560 | 4212 ft | 92 kts | 103° |
| 2026-04-21 12:59 | -18.79787 | 47.48331 | 4212 ft | 67 kts | 98° |
| 2026-04-21 13:00 | -18.79830 | 47.48625 | 4212 ft | 54 kts | 99° |
| 2026-04-21 13:00 | -18.79887 | 47.48938 | 4212 ft | 33 kts | 95° |
| 2026-04-21 13:00 | -18.79894 | 47.49123 | 4212 ft | 21 kts | 88° |
| 2026-04-21 13:00 | -18.79893 | 47.49249 | 4212 ft | 12 kts | 85° |
| 2026-04-21 13:01 | -18.79909 | 47.49300 | 4212 ft | 5 kts | 161° |
| 2026-04-21 13:01 | -18.79933 | 47.49290 | 4212 ft | 5 kts | 236° |
| 2026-04-21 13:01 | -18.79927 | 47.49254 | 4212 ft | 8 kts | 290° |
| 2026-04-21 13:01 | -18.79900 | 47.49175 | 4212 ft | 12 kts | 284° |
| 2026-04-21 13:02 | -18.79886 | 47.49104 | 4212 ft | 7 kts | 281° |
| 2026-04-21 13:02 | -18.79879 | 47.49065 | 4212 ft | 7 kts | 281° |
| 2026-04-21 13:02 | -18.79853 | 47.48914 | 4212 ft | 15 kts | 279° |
| 2026-04-21 13:03 | -18.79832 | 47.48776 | 4212 ft | 21 kts | 279° |
| 2026-04-21 13:03 | -18.79805 | 47.48594 | 4212 ft | 29 kts | 278° |
| 2026-04-21 13:03 | -18.79782 | 47.48400 | 4212 ft | 24 kts | 276° |
| 2026-04-21 13:03 | -18.79764 | 47.48247 | 4212 ft | 9 kts | 281° |
| 2026-04-21 13:04 | -18.79764 | 47.48223 | 4212 ft | 3 kts | 244° |
| 2026-04-21 13:04 | -18.79791 | 47.48209 | 4212 ft | 8 kts | 196° |
| 2026-04-21 13:04 | -18.79855 | 47.48183 | 4212 ft | 8 kts | 225° |
| 2026-04-21 13:04 | -18.79877 | 47.48149 | 4212 ft | 5 kts | 249° |
| 2026-04-21 13:05 | -18.79879 | 47.48107 | 4212 ft | 7 kts | 267° |
| 2026-04-21 13:05 | -18.79899 | 47.48087 | 4212 ft | 6 kts | 197° |
| 2026-04-21 13:05 | -18.79933 | 47.48080 | 4212 ft | 4 kts | 190° |
| 2026-04-21 13:05 | -18.79969 | 47.48073 | 4212 ft | 5 kts | 189° |
| 2026-04-21 13:06 | -18.79986 | 47.48071 | 4212 ft | 1 kts | 186° |
| 2026-04-21 13:06 | -18.80001 | 47.48069 | 4212 ft | 0 kts | 187° |